METAR Data
IDs: Format: Raw Decoded Include TAF

Data at: 0238 UTC 18 Jun 2019

PFSH 180156Z AUTO 01019KT CLR 21/04 A2961 RMK AO2 SLP026 T02060039 PWINO $
PFSH 180056Z AUTO 01012KT CLR 21/06 A2962 RMK AO2 SLP030 T02060061 PWINO $
PFSH 172356Z AUTO 35017KT CLR 21/07 A2963 RMK AO2 SLP034 T02060067 10206 20156 58014 PWINO $
PFSH 172256Z AUTO 34016KT SCT050 21/08 A2965 RMK AO2 SLP039 T02060078 PWINO $
PFSH 172156Z AUTO 33013KT CLR 17/08 A2966 RMK AO2 SLP044 T01720083 PWINO $
PFSH 172056Z AUTO 35017KT CLR 17/08 A2967 RMK AO2 SLP047 T01670083 58013 PWINO $
PFSH 171956Z AUTO 36016KT CLR 18/08 A2969 RMK AO2 SLP054 T01780083 PWINO $
PFSH 171856Z AUTO 01014KT CLR 17/09 A2970 RMK AO2 SLP058 T01670089 PWINO $
PFSH 171756Z AUTO 36013KT CLR 16/08 A2971 RMK AO2 SLP060 T01560078 10161 20122 58009 PWINO $
PFSH 171656Z AUTO 01015KT CLR 15/09 A2972 RMK AO2 SLP065 T01500089 PWINO $
PFSH 171556Z AUTO 02016KT CLR 14/08 A2973 RMK AO2 SLP067 T01440078 PWINO $
PFSH 171456Z AUTO 34005KT CLR 13/09 A2973 RMK AO2 SLP069 T01280089 56008 PWINO $
PFSH 171356Z AUTO 36007KT OVC065 12/08 A2974 RMK AO2 SLP069 T01220078 PWINO $
PFSH 171256Z AUTO 36011KT BKN075 13/09 A2975 RMK AO2 SLP073 T01280089 PWINO $
PFSH 171156Z AUTO 01011KT CLR 13/09 A2976 RMK AO2 SLP077 T01330089 10206 20133 51001 PWINO $
PFSH 171056Z AUTO 36013KT CLR 15/09 A2975 RMK AO2 SLP076 T01500089 PWINO $
PFSH 170956Z AUTO 36012KT CLR 16/11 A2976 RMK AO2 SLP077 T01560106 PWINO $
PFSH 170856Z AUTO 01015KT CLR 17/09 A2975 RMK AO2 SLP075 T01670094 402280106 51004 PWINO $
PFSH 170756Z AUTO 36015KT CLR 18/10 A2975 RMK AO2 SLP073 T01780100 PWINO $
PFSH 170656Z AUTO 36015KT CLR 18/12 A2975 RMK AO2 SLP073 T01830117 PWINO $
PFSH 170556Z AUTO 36019KT CLR 21/10 A2974 RMK AO2 SLP071 T02060100 10228 20206 55002 PWINO $
PFSH 170456Z AUTO 01018KT CLR 21/11 A2974 RMK AO2 SLP070 T02110106 PWINO $
PFSH 170356Z AUTO 36017KT CLR 23/08 A2974 RMK AO2 SLP071 T02280078 PWINO $
PFSH 170256Z AUTO 36015KT FEW031 23/06 A2975 RMK AO2 SLP073 T02280061 56015 PWINO $
PFSH 170156Z AUTO 01017KT CLR 22/07 A2976 RMK AO2 SLP076 T02220072 PWINO $
PFSH 170056Z AUTO 01016KT CLR 22/07 A2978 RMK AO2 SLP083 T02220072 PWINO $
PFSH 162356Z AUTO 01018KT CLR 22/08 A2979 RMK AO2 SLP088 T02170083 10217 20156 56010 PWINO $
PFSH 162256Z AUTO 01015KT BKN110 21/09 A2980 RMK AO2 SLP091 T02060094 PWINO $
PFSH 162156Z AUTO 01019KT OVC110 22/10 A2981 RMK AO2 SLP094 T02170100 PWINO $
PFSH 162056Z AUTO 01015KT CLR 21/11 A2982 RMK AO2 SLP098 T02060106 58007 PWINO $
PFSH 161956Z AUTO 01014KT CLR 18/11 A2983 RMK AO2 SLP102 T01830106 PWINO $
PFSH 161856Z AUTO 01011KT BKN100 18/12 A2984 RMK AO2 SLP104 T01780117 PWINO $
PFSH 161756Z AUTO 01008KT SCT075 16/11 A2984 RMK AO2 SLP105 T01560111 10161 20106 56004 PWINO $
PFSH 161656Z AUTO 36007KT FEW075 OVC100 14/12 A2985 RMK AO2 SLP107 T01440117 PWINO $
PFSH 161556Z AUTO 01003KT FEW100 12/09 A2985 RMK AO2 SLP106 T01220089 PWINO $
PFSH 161456Z AUTO 06005KT SCT110 11/09 A2985 RMK AO2 SLP109 T01110089 53001 PWINO $